createdAt,value
2022-12-06T00:01:35.401Z,99191.29
2022-12-06T00:04:11.809Z,99190.90
2022-12-06T00:06:48.208Z,99193.70
2022-12-06T00:09:26.193Z,99188.52
2022-12-06T00:11:54.995Z,99186.23
2022-12-06T00:14:24.739Z,99186.16
2022-12-06T00:16:53.085Z,99181.99
2022-12-06T00:19:23.631Z,99185.21
2022-12-06T00:21:52.143Z,99177.41
2022-12-06T00:24:22.147Z,99170.92
2022-12-06T00:26:51.609Z,99166.67
2022-12-06T00:29:22.641Z,99163.71
2022-12-06T00:31:51.392Z,99163.78
2022-12-06T00:34:19.652Z,99165.58
2022-12-06T00:36:48.905Z,99165.56
2022-12-06T00:39:18.112Z,99166.67
2022-12-06T00:41:46.783Z,99159.42
2022-12-06T00:44:15.589Z,99155.88
2022-12-06T00:46:43.759Z,99159.16
2022-12-06T00:49:12.133Z,99158.85
2022-12-06T00:51:40.929Z,99153.49
2022-12-06T00:54:15.090Z,99159.49
2022-12-06T00:56:43.453Z,99155.23
2022-12-06T00:59:11.561Z,99152.66
2022-12-06T01:01:39.915Z,99149.29
2022-12-06T01:04:09.384Z,99150.06
2022-12-06T01:06:38.114Z,99151.58
2022-12-06T01:09:09.834Z,99145.20
2022-12-06T01:11:40.660Z,99138.67
2022-12-06T01:14:11.844Z,99137.05
2022-12-06T01:16:42.032Z,99136.19
2022-12-06T01:19:12.962Z,99129.85
2022-12-06T01:21:41.211Z,99128.84
2022-12-06T01:24:09.222Z,99124.13
2022-12-06T01:26:37.438Z,99123.16
2022-12-06T01:29:05.813Z,99120.53
2022-12-06T01:31:38.561Z,99119.30
2022-12-06T01:34:15.383Z,99117.83
2022-12-06T01:36:44.938Z,99120.51
2022-12-06T01:39:13.237Z,99116.91
2022-12-06T01:41:42.268Z,99117.91
2022-12-06T01:44:44.565Z,99112.33
2022-12-06T01:47:25.326Z,99115.13
2022-12-06T01:49:56.613Z,99111.64
2022-12-06T01:52:30.918Z,99109.48
2022-12-06T01:55:00.517Z,99104.81
2022-12-06T01:57:29.962Z,99105.17
2022-12-06T01:59:58.646Z,99097.38
2022-12-06T02:03:30.699Z,99090.75
2022-12-06T02:06:01.594Z,99088.77
2022-12-06T02:08:30.435Z,99088.39
2022-12-06T02:11:01.336Z,99085.46
2022-12-06T02:13:32.204Z,99084.23
2022-12-06T02:16:11.807Z,99081.16
2022-12-06T02:18:54.962Z,99078.77
2022-12-06T02:21:38.369Z,99079.74
2022-12-06T02:24:44.386Z,99081.35
2022-12-06T02:27:42.897Z,99073.58
2022-12-06T02:30:18.877Z,99076.20
2022-12-06T02:33:05.874Z,99073.20
2022-12-06T02:35:50.721Z,99067.56
2022-12-06T02:38:33.670Z,99068.24
2022-12-06T02:41:11.880Z,99065.56
2022-12-06T02:43:45.948Z,99063.98
2022-12-06T02:46:17.683Z,99059.92
2022-12-06T02:48:48.048Z,99057.95
2022-12-06T02:51:18.240Z,99052.16
2022-12-06T02:53:50.094Z,99053.44
2022-12-06T02:56:20.024Z,99050.45
2022-12-06T02:58:48.078Z,99049.68
2022-12-06T03:01:20.733Z,99043.13
2022-12-06T03:04:00.943Z,99037.65
2022-12-06T03:06:50.732Z,99037.27
2022-12-06T03:09:19.365Z,99035.58
2022-12-06T03:12:15.373Z,99035.73
2022-12-06T03:14:52.723Z,99035.70
2022-12-06T03:17:37.306Z,99031.23
2022-12-06T03:20:15.974Z,99027.70
2022-12-06T03:22:50.903Z,99024.52
2022-12-06T03:25:19.342Z,99026.64
2022-12-06T03:27:49.746Z,99024.08
2022-12-06T03:30:18.348Z,99017.84
2022-12-06T03:32:50.321Z,99020.70
2022-12-06T03:35:24.561Z,99017.08
2022-12-06T03:37:58.965Z,99009.00
2022-12-06T03:40:30.562Z,99006.33
2022-12-06T03:43:00.202Z,99006.25
2022-12-06T03:45:39.100Z,98999.77
2022-12-06T03:48:13.346Z,98998.55
2022-12-06T03:50:46.831Z,98996.26
2022-12-06T03:53:17.990Z,98986.36
2022-12-06T03:55:46.131Z,98983.25
2022-12-06T03:58:14.471Z,98980.10
2022-12-06T04:00:42.638Z,98977.42
2022-12-06T04:03:10.892Z,98974.80
2022-12-06T04:05:39.158Z,98973.01
2022-12-06T04:08:07.561Z,98971.55
2022-12-06T04:10:35.774Z,98970.44
2022-12-06T04:13:05.979Z,98965.94
2022-12-06T04:15:39.215Z,98966.63
2022-12-06T04:18:11.726Z,98962.65
2022-12-06T04:21:07.894Z,98959.06
2022-12-06T04:23:38.774Z,98953.44
2022-12-06T04:26:09.421Z,98954.83
2022-12-06T04:28:56.137Z,98951.96
2022-12-06T04:31:43.122Z,98951.56
2022-12-06T04:34:30.204Z,98949.02
2022-12-06T04:37:17.595Z,98944.60
2022-12-06T04:39:46.554Z,98947.71
2022-12-06T04:42:33.553Z,98947.02
2022-12-06T04:45:02.538Z,98953.36
2022-12-06T04:47:31.248Z,98954.91
2022-12-06T04:49:59.500Z,98954.75
2022-12-06T04:52:32.672Z,98949.20
2022-12-06T04:55:05.374Z,98942.41
2022-12-06T04:57:33.703Z,98933.05
2022-12-06T05:00:01.901Z,98929.55
2022-12-06T05:02:30.427Z,98925.95
2022-12-06T05:04:58.942Z,98919.13
2022-12-06T05:07:26.993Z,98902.90
2022-12-06T05:09:55.206Z,98898.40
2022-12-06T05:12:23.317Z,98902.83
2022-12-06T05:14:51.328Z,98910.98
2022-12-06T05:17:19.401Z,98909.67
2022-12-06T05:19:47.562Z,98915.77
2022-12-06T05:22:15.673Z,98916.40
2022-12-06T05:24:43.982Z,98908.80
2022-12-06T05:27:12.113Z,98902.85
2022-12-06T05:29:40.547Z,98901.28
2022-12-06T05:32:09.085Z,98896.61
2022-12-06T05:34:37.363Z,98890.59
2022-12-06T05:37:05.471Z,98887.14
2022-12-06T05:39:33.618Z,98884.23
2022-12-06T05:42:02.970Z,98883.09
2022-12-06T05:44:30.980Z,98882.12
2022-12-06T05:46:59.405Z,98880.77
2022-12-06T05:49:28.546Z,98875.16
2022-12-06T05:52:01.200Z,98875.54
2022-12-06T05:54:32.009Z,98873.30
2022-12-06T05:57:01.463Z,98872.10
2022-12-06T05:59:30.246Z,98865.14
2022-12-06T06:01:58.510Z,98853.48
2022-12-06T06:04:26.676Z,98849.16
2022-12-06T06:06:54.782Z,98848.08
2022-12-06T06:09:23.981Z,98854.09
2022-12-06T06:11:52.018Z,98861.67
2022-12-06T06:14:20.620Z,98860.38
2022-12-06T06:16:48.777Z,98858.63
2022-12-06T06:19:16.939Z,98857.19
2022-12-06T06:21:49.361Z,98856.59
2022-12-06T06:24:17.814Z,98860.33
2022-12-06T06:26:45.873Z,98862.47
2022-12-06T06:29:14.149Z,98859.48
2022-12-06T06:31:42.422Z,98859.06
2022-12-06T06:34:10.580Z,98857.32
2022-12-06T06:36:42.469Z,98858.63
2022-12-06T06:39:14.076Z,98859.15
2022-12-06T06:41:42.260Z,98861.83
2022-12-06T06:44:10.736Z,98862.17
2022-12-06T06:46:39.132Z,98862.73
2022-12-06T06:49:07.206Z,98860.34
2022-12-06T06:51:35.432Z,98858.80
2022-12-06T06:54:03.771Z,98858.77
2022-12-06T06:56:31.953Z,98853.67
2022-12-06T06:59:00.765Z,98858.77
2022-12-06T07:01:29.627Z,98863.64
2022-12-06T07:03:57.867Z,98857.54
2022-12-06T07:06:26.095Z,98851.95
2022-12-06T07:08:54.166Z,98852.34
2022-12-06T07:11:23.653Z,98854.55
2022-12-06T07:13:52.895Z,98857.02
2022-12-06T07:16:21.751Z,98851.64
2022-12-06T07:18:50.442Z,98857.19
2022-12-06T07:21:18.583Z,98861.68
2022-12-06T07:23:46.895Z,98864.70
2022-12-06T07:26:20.467Z,98861.57
2022-12-06T07:28:50.693Z,98867.90
2022-12-06T07:31:26.897Z,98874.26
2022-12-06T07:33:57.704Z,98873.71
2022-12-06T07:36:29.128Z,98875.45
2022-12-06T07:38:58.916Z,98876.06
2022-12-06T07:41:48.095Z,98875.78
2022-12-06T07:45:03.380Z,98880.50
2022-12-06T07:47:41.352Z,98883.75
2022-12-06T07:50:21.855Z,98886.73
2022-12-06T07:52:52.896Z,98886.15
2022-12-06T07:55:21.406Z,98885.50
2022-12-06T07:57:49.495Z,98879.84
2022-12-06T08:00:20.455Z,98880.81
2022-12-06T08:02:48.703Z,98880.77
2022-12-06T08:05:17.012Z,98879.84
2022-12-06T08:07:45.266Z,98873.23
2022-12-06T08:10:13.825Z,98875.09
2022-12-06T08:12:42.194Z,98876.85
2022-12-06T08:15:13.364Z,98876.77
2022-12-06T08:17:42.324Z,98872.64
2022-12-06T08:20:13.897Z,98871.55
2022-12-06T08:22:42.334Z,98866.95
2022-12-06T08:25:10.598Z,98868.09
2022-12-06T08:27:38.717Z,98865.31
2022-12-06T08:30:07.875Z,98862.24
2022-12-06T08:32:36.007Z,98860.14
2022-12-06T08:35:04.297Z,98854.26
2022-12-06T08:37:34.949Z,98855.08
2022-12-06T08:40:03.702Z,98853.55
2022-12-06T08:42:31.785Z,98850.48
2022-12-06T08:45:00.088Z,98845.55
2022-12-06T08:47:28.299Z,98848.37
2022-12-06T08:49:58.815Z,98842.48
2022-12-06T08:52:27.396Z,98840.48
2022-12-06T08:54:55.583Z,98834.55
2022-12-06T08:57:24.197Z,98831.23
2022-12-06T08:59:52.441Z,98828.23
2022-12-06T09:02:20.707Z,98818.64
2022-12-06T09:04:51.768Z,98817.77
2022-12-06T09:07:23.753Z,98814.63
2022-12-06T09:09:54.647Z,98814.83
2022-12-06T09:12:23.153Z,98815.85
2022-12-06T09:14:51.488Z,98814.40
2022-12-06T09:17:19.486Z,98810.74
2022-12-06T09:19:48.063Z,98806.45
2022-12-06T09:22:16.360Z,98799.23
2022-12-06T09:24:44.525Z,98800.96
2022-12-06T09:27:12.826Z,98801.68
2022-12-06T09:29:41.153Z,98798.54
2022-12-06T09:32:09.305Z,98799.15
2022-12-06T09:34:38.149Z,98795.74
2022-12-06T09:37:12.423Z,98791.35
2022-12-06T09:39:47.313Z,98790.95
2022-12-06T09:42:45.717Z,98783.23
2022-12-06T09:45:32.805Z,98780.96
2022-12-06T09:48:10.058Z,98771.96
2022-12-06T09:50:44.399Z,98768.87
2022-12-06T09:53:22.381Z,98764.02
2022-12-06T09:56:09.227Z,98760.86
2022-12-06T09:59:08.612Z,98752.34
2022-12-06T10:02:02.724Z,98749.52
2022-12-06T10:04:36.004Z,98745.42
2022-12-06T10:07:10.876Z,98740.52
2022-12-06T10:10:04.355Z,98738.02
2022-12-06T10:12:52.759Z,98731.04
2022-12-06T10:15:28.308Z,98727.63
2022-12-06T10:18:44.602Z,98725.39
2022-12-06T10:21:27.095Z,98719.70
2022-12-06T10:24:16.908Z,98718.22
2022-12-06T10:26:52.713Z,98715.39
2022-12-06T10:29:34.201Z,98706.70
2022-12-06T10:32:21.313Z,98707.11
2022-12-06T10:34:56.511Z,98708.34
2022-12-06T10:37:52.386Z,98700.75
2022-12-06T10:40:30.731Z,98698.71
2022-12-06T10:43:10.707Z,98697.83
2022-12-06T10:46:09.180Z,98698.91
2022-12-06T10:48:55.721Z,98695.38
2022-12-06T10:51:47.527Z,98696.36
2022-12-06T10:54:25.789Z,98693.73
2022-12-06T10:56:57.260Z,98694.22
2022-12-06T10:59:37.211Z,98690.94
2022-12-06T11:02:27.169Z,98685.39
2022-12-06T11:05:00.777Z,98685.78
2022-12-06T11:07:37.791Z,98691.32
2022-12-06T11:10:21.940Z,98685.57
2022-12-06T11:12:58.286Z,98687.05
2022-12-06T11:15:53.388Z,98682.89
2022-12-06T11:18:23.718Z,98685.61
2022-12-06T11:21:00.782Z,98683.32
2022-12-06T11:23:53.283Z,98676.98
2022-12-06T11:26:35.138Z,98675.52
2022-12-06T11:29:07.164Z,98670.39
2022-12-06T11:31:44.081Z,98671.31
2022-12-06T11:34:22.768Z,98668.77
2022-12-06T11:36:59.636Z,98666.25
2022-12-06T11:39:31.031Z,98666.89
2022-12-06T11:42:03.195Z,98666.15
2022-12-06T11:44:47.914Z,98658.80
2022-12-06T11:47:22.005Z,98659.20
2022-12-06T11:49:55.757Z,98656.45
2022-12-06T11:52:37.321Z,98654.38
2022-12-06T11:55:21.872Z,98655.65
2022-12-06T11:58:13.366Z,98654.15
2022-12-06T12:01:03.241Z,98651.05
2022-12-06T12:03:39.625Z,98649.60
2022-12-06T12:06:26.434Z,98646.67
2022-12-06T12:09:03.057Z,98644.70
2022-12-06T12:11:34.424Z,98640.39
2022-12-06T12:14:04.490Z,98639.20
2022-12-06T12:16:32.840Z,98641.13
2022-12-06T12:19:25.209Z,98635.54
2022-12-06T12:21:56.797Z,98633.93
2022-12-06T12:27:40.625Z,98630.09
2022-12-06T12:30:28.963Z,98625.45
2022-12-06T12:33:18.858Z,98619.97
2022-12-06T12:35:50.683Z,98618.64
2022-12-06T12:38:27.418Z,98613.67
2022-12-06T12:41:03.311Z,98616.19
2022-12-06T12:43:34.652Z,98611.33
2022-12-06T12:46:12.179Z,98607.77
2022-12-06T12:48:43.457Z,98611.91
2022-12-06T12:51:28.775Z,98601.90
2022-12-06T12:54:18.962Z,98595.65
2022-12-06T12:56:47.929Z,98597.72
2022-12-06T12:59:19.872Z,98590.35
2022-12-06T13:02:01.318Z,98591.02
2022-12-06T13:04:42.557Z,98589.34
2022-12-06T13:07:11.664Z,98591.58
2022-12-06T13:09:52.320Z,98583.29
2022-12-06T13:12:34.779Z,98585.08
2022-12-06T13:15:11.801Z,98585.36
2022-12-06T13:17:44.302Z,98587.58
2022-12-06T13:20:24.891Z,98588.27
2022-12-06T13:22:57.311Z,98586.67
2022-12-06T13:25:25.789Z,98588.64
2022-12-06T13:28:03.705Z,98588.42
2022-12-06T13:30:36.809Z,98591.75
2022-12-06T13:33:27.400Z,98593.48
2022-12-06T13:35:59.435Z,98593.17
2022-12-06T13:38:33.241Z,98592.63
2022-12-06T13:41:03.298Z,98593.59
2022-12-06T13:43:36.400Z,98592.63
2022-12-06T13:46:10.910Z,98596.77
2022-12-06T13:48:51.730Z,98596.08
2022-12-06T13:51:35.405Z,98595.87
2022-12-06T13:54:03.694Z,98593.46
2022-12-06T13:56:34.757Z,98594.46
2022-12-06T13:59:05.350Z,98597.83
2022-12-06T14:01:40.201Z,98597.42
2022-12-06T14:07:03.135Z,98592.94
2022-12-06T14:09:39.500Z,98590.65
2022-12-06T14:12:23.574Z,98589.13
2022-12-06T14:14:57.055Z,98588.92
2022-12-06T14:18:00.653Z,98586.72
2022-12-06T14:20:28.981Z,98586.34
2022-12-06T14:22:57.895Z,98587.72
2022-12-06T14:25:29.828Z,98587.92
2022-12-06T14:28:12.906Z,98585.74
2022-12-06T14:30:42.107Z,98585.20
2022-12-06T14:33:23.497Z,98587.21
2022-12-06T14:35:53.561Z,98588.58
2022-12-06T14:38:22.999Z,98587.02
2022-12-06T14:41:10.624Z,98584.98
2022-12-06T14:43:40.150Z,98589.02
2022-12-06T14:46:12.759Z,98589.40
2022-12-06T14:48:59.554Z,98591.35
2022-12-06T14:51:36.840Z,98593.34
2022-12-06T14:54:31.382Z,98589.06
2022-12-06T14:57:00.424Z,98584.45
2022-12-06T15:00:10.778Z,98581.53
2022-12-06T15:02:28.998Z,98582.00
2022-12-06T15:04:59.324Z,98579.65
2022-12-06T15:07:38.982Z,98576.39
2022-12-06T15:10:32.658Z,98580.23
2022-12-06T15:13:14.880Z,98575.15
2022-12-06T15:15:47.473Z,98575.52
2022-12-06T15:18:29.810Z,98575.30
2022-12-06T15:20:58.126Z,98576.59
2022-12-06T15:23:30.473Z,98576.89
2022-12-06T15:25:58.884Z,98572.20
2022-12-06T15:28:30.431Z,98571.02
2022-12-06T15:30:59.207Z,98566.53
2022-12-06T15:33:27.839Z,98564.00
2022-12-06T15:35:58.295Z,98570.75
2022-12-06T15:38:26.727Z,98569.80
2022-12-06T15:40:56.257Z,98570.94
2022-12-06T15:43:34.251Z,98569.17
2022-12-06T15:46:04.062Z,98567.36
2022-12-06T15:48:37.696Z,98569.67
2022-12-06T15:51:10.437Z,98567.14
2022-12-06T15:53:39.699Z,98563.02
2022-12-06T15:56:14.858Z,98561.52
2022-12-06T15:58:44.508Z,98558.23
2022-12-06T16:01:23.600Z,98554.60
2022-12-06T16:03:54.491Z,98554.14
2022-12-06T16:06:25.959Z,98549.56
2022-12-06T16:08:54.414Z,98544.55
2022-12-06T16:11:27.646Z,98545.41
2022-12-06T16:13:56.478Z,98542.27
2022-12-06T16:16:24.758Z,98543.16
2022-12-06T16:18:54.192Z,98543.80
2022-12-06T16:21:30.741Z,98544.09
2022-12-06T16:24:12.933Z,98544.32
2022-12-06T16:26:44.788Z,98545.86
2022-12-06T16:29:23.534Z,98544.77
2022-12-06T16:31:56.091Z,98542.86
2022-12-06T16:34:28.969Z,98543.23
2022-12-06T16:37:02.737Z,98541.52
2022-12-06T16:39:33.800Z,98543.73
2022-12-06T16:42:06.454Z,98544.39
2022-12-06T16:44:51.433Z,98545.58
2022-12-06T16:49:49.052Z,98548.21
2022-12-06T16:52:17.895Z,98542.66
2022-12-06T16:54:46.337Z,98540.92
2022-12-06T16:57:14.958Z,98540.58
2022-12-06T16:59:43.608Z,98542.91
2022-12-06T17:02:30.411Z,98541.90
2022-12-06T17:05:02.286Z,98537.63
2022-12-06T17:07:31.654Z,98544.59
2022-12-06T17:10:00.093Z,98541.18
2022-12-06T17:12:28.666Z,98541.61
2022-12-06T17:14:59.021Z,98538.53
2022-12-06T17:17:29.462Z,98538.52
2022-12-06T17:19:57.905Z,98539.68
2022-12-06T17:22:26.109Z,98541.71
2022-12-06T17:24:54.445Z,98540.34
2022-12-06T17:27:22.789Z,98540.92
2022-12-06T17:29:51.167Z,98544.52
2022-12-06T17:32:20.549Z,98545.08
2022-12-06T17:34:49.201Z,98550.50
2022-12-06T17:37:17.477Z,98555.17
2022-12-06T17:39:45.951Z,98556.77
2022-12-06T17:42:33.212Z,98556.58
2022-12-06T17:45:05.916Z,98557.05
2022-12-06T17:47:34.457Z,98559.55
2022-12-06T17:50:03.894Z,98556.30
2022-12-06T17:52:32.421Z,98558.20
2022-12-06T17:55:00.995Z,98557.92
2022-12-06T17:57:29.793Z,98561.64
2022-12-06T17:59:58.152Z,98565.27
2022-12-06T18:02:26.520Z,98561.16
2022-12-06T18:04:56.244Z,98559.89
2022-12-06T18:07:24.535Z,98565.10
2022-12-06T18:09:53.203Z,98560.83
2022-12-06T18:12:21.253Z,98559.23
2022-12-06T18:14:49.855Z,98555.30
2022-12-06T18:17:18.333Z,98551.94
2022-12-06T18:19:47.273Z,98546.14
2022-12-06T18:22:15.899Z,98542.91
2022-12-06T18:24:44.840Z,98542.88
2022-12-06T18:27:13.884Z,98539.06
2022-12-06T18:29:42.205Z,98537.12
2022-12-06T18:32:10.338Z,98535.48
2022-12-06T18:34:38.975Z,98533.40
2022-12-06T18:37:07.258Z,98532.19
2022-12-06T18:39:35.431Z,98529.59
2022-12-06T18:42:03.673Z,98529.89
2022-12-06T18:44:31.858Z,98526.48
2022-12-06T18:47:00.113Z,98526.01
2022-12-06T18:49:28.908Z,98528.34
2022-12-06T18:51:57.184Z,98530.09
2022-12-06T18:54:26.397Z,98529.56
2022-12-06T18:56:57.110Z,98531.45
2022-12-06T18:59:27.825Z,98528.48
2022-12-06T19:01:56.633Z,98534.60
2022-12-06T19:04:24.880Z,98536.21
2022-12-06T19:06:53.112Z,98532.39
2022-12-06T19:09:22.583Z,98528.24
2022-12-06T19:11:50.699Z,98528.39
2022-12-06T19:14:19.607Z,98526.58
2022-12-06T19:16:50.167Z,98522.13
2022-12-06T19:19:23.154Z,98526.98
2022-12-06T19:21:53.269Z,98527.47
2022-12-06T19:24:23.949Z,98526.79
2022-12-06T19:26:54.075Z,98530.59
2022-12-06T19:29:22.451Z,98531.10
2022-12-06T19:31:50.981Z,98534.30
2022-12-06T19:34:25.775Z,98534.68
2022-12-06T19:36:55.208Z,98531.02
2022-12-06T19:39:24.177Z,98534.52
2022-12-06T19:42:11.267Z,98536.64
2022-12-06T19:44:39.956Z,98531.27
2022-12-06T19:47:08.104Z,98533.02
2022-12-06T19:49:36.389Z,98528.89
2022-12-06T19:52:05.006Z,98529.48
2022-12-06T19:54:34.067Z,98528.80
2022-12-06T19:57:02.722Z,98526.00
2022-12-06T19:59:34.399Z,98524.48
2022-12-06T20:02:04.534Z,98518.82
2022-12-06T20:04:37.790Z,98521.59
2022-12-06T20:07:07.450Z,98519.58
2022-12-06T20:09:36.060Z,98519.14
2022-12-06T20:12:08.733Z,98518.27
2022-12-06T20:14:44.332Z,98518.80
2022-12-06T20:17:15.488Z,98512.77
2022-12-06T20:19:46.214Z,98507.64
2022-12-06T20:22:16.445Z,98511.44
2022-12-06T20:24:44.999Z,98512.17
2022-12-06T20:27:13.216Z,98503.48
2022-12-06T20:29:41.461Z,98503.19
2022-12-06T20:32:10.430Z,98501.58
2022-12-06T20:34:39.207Z,98501.13
2022-12-06T20:37:07.457Z,98497.03
2022-12-06T20:39:36.544Z,98496.72
2022-12-06T20:42:06.394Z,98493.45
2022-12-06T20:44:34.983Z,98493.73
2022-12-06T20:47:06.207Z,98489.73
2022-12-06T20:49:34.597Z,98489.05
2022-12-06T20:52:04.913Z,98487.74
2022-12-06T20:54:33.051Z,98486.53
2022-12-06T20:57:06.428Z,98487.84
2022-12-06T20:59:35.553Z,98482.97
2022-12-06T21:02:04.599Z,98482.23
2022-12-06T21:04:32.833Z,98484.81
2022-12-06T21:07:00.950Z,98483.04
2022-12-06T21:09:29.592Z,98481.98
2022-12-06T21:11:57.812Z,98482.70
2022-12-06T21:14:26.135Z,98486.04
2022-12-06T21:16:54.215Z,98486.31
2022-12-06T21:19:23.011Z,98486.33
2022-12-06T21:21:53.723Z,98489.79
2022-12-06T21:24:22.136Z,98487.02
2022-12-06T21:26:50.384Z,98491.05
2022-12-06T21:29:30.436Z,98489.81
2022-12-06T21:32:14.739Z,98489.95
2022-12-06T21:34:46.613Z,98488.05
2022-12-06T21:37:15.110Z,98489.45
2022-12-06T21:39:46.687Z,98488.67
2022-12-06T21:42:21.042Z,98484.36
2022-12-06T21:44:49.107Z,98483.63
2022-12-06T21:47:17.637Z,98482.41
2022-12-06T21:49:45.773Z,98481.41
2022-12-06T21:52:14.319Z,98476.89
2022-12-06T21:54:42.601Z,98478.81
2022-12-06T21:57:10.668Z,98484.03
2022-12-06T21:59:38.908Z,98483.52
2022-12-06T22:02:09.934Z,98479.84
2022-12-06T22:04:38.032Z,98483.07
2022-12-06T22:07:06.305Z,98484.91
2022-12-06T22:09:34.795Z,98485.23
2022-12-06T22:12:08.888Z,98485.98
2022-12-06T22:14:37.242Z,98486.03
2022-12-06T22:17:05.381Z,98483.23
2022-12-06T22:19:33.525Z,98481.89
2022-12-06T22:22:02.041Z,98476.71
2022-12-06T22:24:30.149Z,98479.64
2022-12-06T22:26:58.276Z,98479.13
2022-12-06T22:29:26.753Z,98472.89
2022-12-06T22:31:54.932Z,98474.39
2022-12-06T22:34:23.352Z,98474.24
2022-12-06T22:36:51.562Z,98476.33
2022-12-06T22:39:19.703Z,98477.34
2022-12-06T22:41:47.857Z,98475.61
2022-12-06T22:44:16.476Z,98469.05
2022-12-06T22:46:44.767Z,98467.83
2022-12-06T22:49:17.892Z,98460.45
2022-12-06T22:51:46.688Z,98463.97
2022-12-06T22:54:15.243Z,98464.18
2022-12-06T22:56:49.447Z,98461.89
2022-12-06T22:59:18.209Z,98462.16
2022-12-06T23:01:46.577Z,98459.99
2022-12-06T23:04:17.231Z,98461.00
2022-12-06T23:06:45.695Z,98460.92
2022-12-06T23:09:16.892Z,98460.98
2022-12-06T23:11:45.978Z,98458.39
2022-12-06T23:14:15.269Z,98455.86
2022-12-06T23:16:45.212Z,98460.64
2022-12-06T23:19:13.365Z,98456.38
2022-12-06T23:21:43.487Z,98456.38
2022-12-06T23:24:13.398Z,98453.98
2022-12-06T23:26:45.419Z,98451.23
2022-12-06T23:29:15.438Z,98448.98
2022-12-06T23:31:45.482Z,98448.63
2022-12-06T23:34:21.075Z,98445.73
2022-12-06T23:36:49.733Z,98445.77
2022-12-06T23:39:17.885Z,98441.77
2022-12-06T23:41:47.204Z,98437.80
2022-12-06T23:44:15.704Z,98435.20
2022-12-06T23:46:44.767Z,98434.39
2022-12-06T23:49:21.123Z,98431.30
2022-12-06T23:51:50.113Z,98431.98
2022-12-06T23:54:18.807Z,98435.05
2022-12-06T23:56:47.100Z,98435.06
2022-12-06T23:59:16.409Z,98435.63
